Time;durP1;ratioP1;P1;durP2;ratioP2;P2;SDS_P1;SDS_P2;PMS_P1;PMS_P2;Temp;Humidity;BMP_temperature;BMP_pressure;BME280_temperature;BME280_humidity;BME280_pressure;Samples;Min_cycle;Max_cycle;Signal;HPM_P1;HPM_P2
2023/04/10 00:01:06;;;;;;;;;;;8.50;99.90;;;;;;4993324;28;20396;-67
2023/04/10 00:03:33;;;;;;;;;;;8.40;99.90;;;;;;4992877;28;19930;-67
2023/04/10 00:06:00;;;;;;;;;;;8.50;99.90;;;;;;4989973;28;19970;-66
2023/04/10 00:08:27;;;;;;;;;;;8.50;99.90;;;;;;5009608;28;19932;-67
2023/04/10 00:10:54;;;;;;;;;;;8.50;99.90;;;;;;4980283;28;20356;-67
2023/04/10 00:13:23;;;;;;;;;;;8.50;99.90;;;;;;4996355;28;20423;-69
2023/04/10 00:15:50;;;;;;;;;;;8.50;99.90;;;;;;5016908;28;19926;-67
2023/04/10 00:18:16;;;;;;;;;;;8.50;99.90;;;;;;4992523;28;19926;-67
2023/04/10 00:20:43;;;;;;;;;;;8.60;99.90;;;;;;4994148;28;20055;-66
2023/04/10 00:23:10;;;;;;;;;;;8.50;99.90;;;;;;4986103;28;19925;-68
2023/04/10 00:25:37;;;;;;;;;;;8.50;99.90;;;;;;4994843;28;19926;-67
2023/04/10 00:28:04;;;;;;;;;;;8.50;99.90;;;;;;4993962;28;19926;-68
2023/04/10 00:30:32;;;;;;;;;;;8.50;99.90;;;;;;4990723;28;19926;-68
2023/04/10 00:32:59;;;;;;;;;;;8.50;99.90;;;;;;5005105;28;19933;-66
2023/04/10 00:35:26;;;;;;;;;;;8.50;99.90;;;;;;4987585;28;19933;-67
2023/04/10 00:37:53;;;;;;;;;;;8.50;99.90;;;;;;4976514;28;20012;-68
2023/04/10 00:40:20;;;;;;;;;;;8.50;99.90;;;;;;5005276;28;19933;-67
2023/04/10 00:42:47;;;;;;;;;;;8.50;99.90;;;;;;5001712;28;19925;-68
2023/04/10 00:45:14;;;;;;;;;;;8.50;99.90;;;;;;4997482;28;19926;-66
2023/04/10 00:47:42;;;;;;;;;;;8.50;99.90;;;;;;4988058;28;19932;-68
2023/04/10 00:50:09;;;;;;;;;;;8.50;99.90;;;;;;4993679;28;19925;-67
2023/04/10 00:52:36;;;;;;;;;;;8.50;99.90;;;;;;4992368;28;19926;-68
2023/04/10 00:55:03;;;;;;;;;;;8.50;99.90;;;;;;4983663;28;19961;-65
2023/04/10 00:57:31;;;;;;;;;;;8.50;99.90;;;;;;4979625;28;19965;-67
2023/04/10 00:59:58;;;;;;;;;;;8.50;99.90;;;;;;5003325;28;19925;-66
2023/04/10 01:02:25;;;;;;;;;;;8.50;99.90;;;;;;4996239;28;19929;-68
2023/04/10 01:04:53;;;;;;;;;;;8.50;99.90;;;;;;4993813;28;19948;-67
2023/04/10 01:07:26;;;;;;;;;;;8.50;99.90;;;;;;5003271;28;19925;-67
2023/04/10 01:09:55;;;;;;;;;;;8.40;99.90;;;;;;5008161;28;19926;-67
2023/04/10 01:12:28;;;;;;;;;;;8.40;99.90;;;;;;4991448;28;20401;-67
2023/04/10 01:14:59;;;;;;;;;;;8.40;99.90;;;;;;4998629;28;19926;-68
2023/04/10 01:17:31;;;;;;;;;;;8.40;99.90;;;;;;5005589;28;19930;-68
2023/04/10 01:20:02;;;;;;;;;;;8.40;99.90;;;;;;4996603;28;19972;-70
2023/04/10 01:22:35;;;;;;;;;;;8.30;99.90;;;;;;4993306;28;19925;-67
2023/04/10 01:25:04;;;;;;;;;;;8.40;99.90;;;;;;4987252;28;19977;-68
2023/04/10 01:27:39;;;;;;;;;;;8.30;99.90;;;;;;4979884;28;19926;-67
2023/04/10 01:30:09;;;;;;;;;;;8.30;99.90;;;;;;4983600;28;19926;-68
2023/04/10 01:32:37;;;;;;;;;;;8.30;99.90;;;;;;4982345;28;19949;-67
2023/04/10 01:35:06;;;;;;;;;;;8.30;99.90;;;;;;4979898;28;20029;-68
2023/04/10 01:37:34;;;;;;;;;;;8.30;99.90;;;;;;4987473;28;20293;-67
2023/04/10 01:40:02;;;;;;;;;;;8.30;99.90;;;;;;5007410;28;20409;-68
2023/04/10 01:42:31;;;;;;;;;;;8.40;99.90;;;;;;4990786;28;19926;-68
2023/04/10 01:44:59;;;;;;;;;;;8.40;99.90;;;;;;4992612;28;19957;-68
2023/04/10 01:47:29;;;;;;;;;;;8.40;99.90;;;;;;4975377;28;19926;-67
2023/04/10 01:49:57;;;;;;;;;;;8.40;99.90;;;;;;4985866;28;19987;-68
2023/04/10 01:52:24;;;;;;;;;;;8.30;99.90;;;;;;5003350;28;19930;-66
2023/04/10 01:55:03;;;;;;;;;;;8.30;99.90;;;;;;4979413;28;19926;-67
2023/04/10 01:57:37;;;;;;;;;;;8.30;99.90;;;;;;4999388;28;19925;-68
2023/04/10 02:00:05;;;;;;;;;;;8.30;99.90;;;;;;4996251;28;20420;-67
2023/04/10 02:02:43;;;;;;;;;;;8.30;99.90;;;;;;4992597;28;20312;-67
2023/04/10 02:05:10;;;;;;;;;;;8.30;99.90;;;;;;4992657;28;19932;-67
2023/04/10 02:07:41;;;;;;;;;;;8.20;99.90;;;;;;4982184;28;19936;-68
2023/04/10 02:10:10;;;;;;;;;;;8.20;99.90;;;;;;4996038;28;19926;-68
2023/04/10 02:12:39;;;;;;;;;;;8.20;99.90;;;;;;4982465;28;19925;-67
2023/04/10 02:15:07;;;;;;;;;;;8.20;99.90;;;;;;4985987;28;19933;-68
2023/04/10 02:17:36;;;;;;;;;;;8.00;99.90;;;;;;4982536;28;19997;-69
2023/04/10 02:20:05;;;;;;;;;;;8.00;99.90;;;;;;5010209;28;19926;-65
2023/04/10 02:22:32;;;;;;;;;;;7.90;99.90;;;;;;4979697;28;20415;-67
2023/04/10 02:24:59;;;;;;;;;;;7.80;99.90;;;;;;5003632;28;19926;-68
2023/04/10 02:27:30;;;;;;;;;;;7.80;99.90;;;;;;4979951;28;19937;-67
2023/04/10 02:29:58;;;;;;;;;;;7.70;99.90;;;;;;4979823;28;19925;-66
2023/04/10 02:32:26;;;;;;;;;;;7.70;99.90;;;;;;5003891;28;19930;-67
2023/04/10 02:34:53;;;;;;;;;;;7.80;99.90;;;;;;4975039;28;19926;-65
2023/04/10 02:37:21;;;;;;;;;;;7.80;99.90;;;;;;4991113;28;19933;-66
2023/04/10 02:39:49;;;;;;;;;;;7.70;99.90;;;;;;5006428;28;19934;-66
2023/04/10 02:42:16;;;;;;;;;;;7.70;99.90;;;;;;4990218;28;19936;-68
2023/04/10 02:44:43;;;;;;;;;;;7.70;99.90;;;;;;4997283;28;20389;-67
2023/04/10 02:47:10;;;;;;;;;;;7.70;99.90;;;;;;4999898;28;19926;-67
2023/04/10 02:49:39;;;;;;;;;;;7.60;99.90;;;;;;4988596;28;19936;-67
2023/04/10 02:52:13;;;;;;;;;;;7.60;99.90;;;;;;4996287;28;19932;-67
2023/04/10 02:54:41;;;;;;;;;;;7.60;99.90;;;;;;4993879;28;19957;-68
2023/04/10 02:57:08;;;;;;;;;;;7.60;99.90;;;;;;5003020;28;19927;-66
2023/04/10 02:59:35;;;;;;;;;;;7.60;99.90;;;;;;4980658;28;19930;-66
2023/04/10 03:02:04;;;;;;;;;;;7.60;99.90;;;;;;4989766;28;19930;-65
2023/04/10 03:04:34;;;;;;;;;;;7.50;99.90;;;;;;4990720;28;19930;-65
2023/04/10 03:07:02;;;;;;;;;;;7.50;99.90;;;;;;4982522;28;19953;-68
2023/04/10 03:09:29;;;;;;;;;;;7.60;99.90;;;;;;4995415;28;19926;-67
2023/04/10 03:11:57;;;;;;;;;;;7.50;99.90;;;;;;4982067;28;19926;-67
2023/04/10 03:14:24;;;;;;;;;;;7.50;99.90;;;;;;4993746;28;19932;-69
2023/04/10 03:16:51;;;;;;;;;;;7.50;99.90;;;;;;4994899;28;19932;-67
2023/04/10 03:19:17;;;;;;;;;;;7.50;99.90;;;;;;4998698;28;19926;-66
2023/04/10 03:21:45;;;;;;;;;;;7.60;99.90;;;;;;4985892;28;20032;-66
2023/04/10 03:24:12;;;;;;;;;;;7.60;99.90;;;;;;4985668;28;19934;-67
2023/04/10 03:26:39;;;;;;;;;;;7.50;99.90;;;;;;4983600;28;20309;-68
2023/04/10 03:29:07;;;;;;;;;;;7.40;99.90;;;;;;4998510;28;19933;-68
2023/04/10 03:31:34;;;;;;;;;;;7.50;99.90;;;;;;5002767;28;19980;-66
2023/04/10 03:34:01;;;;;;;;;;;7.40;99.90;;;;;;4997995;28;20293;-66
2023/04/10 03:36:28;;;;;;;;;;;7.50;99.90;;;;;;4990114;28;19961;-66
2023/04/10 03:38:55;;;;;;;;;;;7.50;99.90;;;;;;5001866;28;19930;-69
2023/04/10 03:41:23;;;;;;;;;;;7.50;99.90;;;;;;5007015;28;19932;-67
2023/04/10 03:43:51;;;;;;;;;;;7.40;99.90;;;;;;5001351;28;20012;-69
2023/04/10 03:46:21;;;;;;;;;;;7.30;99.90;;;;;;5004905;28;19926;-67
2023/04/10 03:48:48;;;;;;;;;;;7.20;99.90;;;;;;5002540;28;19925;-68
2023/04/10 03:51:16;;;;;;;;;;;7.30;99.90;;;;;;5009774;28;19936;-67
2023/04/10 03:53:45;;;;;;;;;;;7.30;99.90;;;;;;4996974;28;19930;-67
2023/04/10 03:56:15;;;;;;;;;;;7.30;99.90;;;;;;5005739;28;19930;-67
2023/04/10 03:58:43;;;;;;;;;;;7.30;99.90;;;;;;5001003;28;19930;-66
2023/04/10 04:01:11;;;;;;;;;;;7.30;99.90;;;;;;4992481;28;19930;-67
2023/04/10 04:03:56;;;;;;;;;;;7.30;99.90;;;;;;4999720;28;19926;-67
2023/04/10 04:06:44;;;;;;;;;;;7.20;99.90;;;;;;4997626;28;20025;-69
2023/04/10 04:09:25;;;;;;;;;;;7.20;99.90;;;;;;5009603;28;20397;-68
2023/04/10 04:12:14;;;;;;;;;;;7.20;99.90;;;;;;4995691;28;20012;-66
2023/04/10 04:15:04;;;;;;;;;;;7.10;99.90;;;;;;4991031;28;19932;-66
2023/04/10 04:17:50;;;;;;;;;;;7.00;99.90;;;;;;4995331;28;20293;-68
2023/04/10 04:20:36;;;;;;;;;;;7.00;99.90;;;;;;4991170;28;20416;-68
2023/04/10 04:23:35;;;;;;;;;;;6.90;99.90;;;;;;4991714;28;20528;-67
2023/04/10 04:26:25;;;;;;;;;;;6.90;99.90;;;;;;4989465;28;20305;-67
2023/04/10 04:29:04;;;;;;;;;;;6.90;99.90;;;;;;4986942;28;19925;-66
2023/04/10 04:31:49;;;;;;;;;;;6.80;99.90;;;;;;4997653;28;19940;-66
2023/04/10 04:34:34;;;;;;;;;;;6.80;99.90;;;;;;5006478;28;19926;-65
2023/04/10 04:37:24;;;;;;;;;;;6.70;99.90;;;;;;5010248;28;19925;-64
2023/04/10 04:40:15;;;;;;;;;;;6.70;99.90;;;;;;4997700;28;19933;-67
2023/04/10 04:43:05;;;;;;;;;;;6.70;99.90;;;;;;4986576;28;20031;-66
2023/04/10 04:45:45;;;;;;;;;;;6.70;99.90;;;;;;4993481;28;19925;-66
2023/04/10 04:48:32;;;;;;;;;;;6.60;99.90;;;;;;4998024;28;19980;-68
2023/04/10 04:51:28;;;;;;;;;;;6.60;99.90;;;;;;4986753;28;19932;-65
2023/04/10 04:54:16;;;;;;;;;;;6.60;99.90;;;;;;4976374;28;20012;-67
2023/04/10 04:56:51;;;;;;;;;;;6.60;99.90;;;;;;4996242;28;19933;-67
2023/04/10 04:59:31;;;;;;;;;;;6.60;99.90;;;;;;5002855;28;20451;-67
2023/04/10 05:02:06;;;;;;;;;;;6.50;99.90;;;;;;4979848;28;19925;-67
2023/04/10 05:04:48;;;;;;;;;;;6.60;99.90;;;;;;4983831;28;20412;-68
2023/04/10 05:07:15;;;;;;;;;;;6.60;99.90;;;;;;4997198;28;19926;-68
2023/04/10 05:09:52;;;;;;;;;;;6.50;99.90;;;;;;4994724;28;20304;-67
2023/04/10 05:12:42;;;;;;;;;;;6.50;99.90;;;;;;4990477;28;19926;-67
2023/04/10 05:15:25;;;;;;;;;;;6.50;99.90;;;;;;4996667;28;19933;-67
2023/04/10 05:18:08;;;;;;;;;;;6.60;99.90;;;;;;4995598;28;19936;-67
2023/04/10 05:20:58;;;;;;;;;;;6.60;99.90;;;;;;4980081;28;19926;-67
2023/04/10 05:23:45;;;;;;;;;;;6.60;99.90;;;;;;4981066;28;19965;-66
2023/04/10 05:26:31;;;;;;;;;;;6.60;99.90;;;;;;4988304;28;20300;-66
2023/04/10 05:29:20;;;;;;;;;;;6.70;99.90;;;;;;4986420;28;19972;-68
2023/04/10 05:32:10;;;;;;;;;;;6.80;99.90;;;;;;4989749;28;19932;-65
2023/04/10 05:35:00;;;;;;;;;;;6.90;99.90;;;;;;4986637;28;20404;-65
2023/04/10 05:37:39;;;;;;;;;;;6.90;99.90;;;;;;4977049;28;20496;-67
2023/04/10 05:40:26;;;;;;;;;;;7.00;99.90;;;;;;5008128;28;20458;-68
2023/04/10 05:43:10;;;;;;;;;;;7.10;99.90;;;;;;4989934;28;19930;-66
2023/04/10 05:45:55;;;;;;;;;;;7.20;99.90;;;;;;4999643;28;20081;-68
2023/04/10 05:48:38;;;;;;;;;;;7.30;99.90;;;;;;4999291;28;19937;-66
2023/04/10 05:51:34;;;;;;;;;;;7.40;99.90;;;;;;4988236;28;19937;-65
2023/04/10 05:54:24;;;;;;;;;;;7.50;99.90;;;;;;4969904;28;19933;-67
2023/04/10 05:57:17;;;;;;;;;;;7.60;99.90;;;;;;4968751;28;20045;-68
2023/04/10 06:00:03;;;;;;;;;;;7.70;99.90;;;;;;4991344;28;19932;-67
2023/04/10 06:03:02;;;;;;;;;;;7.80;99.90;;;;;;5003176;28;20507;-65
2023/04/10 06:05:29;;;;;;;;;;;7.90;99.90;;;;;;4999180;28;19929;-67
2023/04/10 06:08:01;;;;;;;;;;;8.00;99.90;;;;;;4987242;28;19961;-66
2023/04/10 06:10:29;;;;;;;;;;;8.20;99.90;;;;;;4991048;28;19937;-68
2023/04/10 06:12:56;;;;;;;;;;;8.40;99.90;;;;;;5001716;28;19933;-67
2023/04/10 06:15:25;;;;;;;;;;;8.50;99.90;;;;;;5002926;28;19925;-66
2023/04/10 06:17:52;;;;;;;;;;;8.60;99.90;;;;;;4999508;28;19926;-67
2023/04/10 06:20:19;;;;;;;;;;;8.80;99.90;;;;;;5001037;28;19933;-65
2023/04/10 06:22:46;;;;;;;;;;;8.90;99.90;;;;;;4994845;28;19936;-66
2023/04/10 06:25:13;;;;;;;;;;;9.10;99.90;;;;;;4993941;28;20411;-68
2023/04/10 06:27:40;;;;;;;;;;;9.20;99.90;;;;;;5008664;28;20344;-66
2023/04/10 06:30:10;;;;;;;;;;;9.20;99.90;;;;;;4985331;28;19926;-67
2023/04/10 06:32:38;;;;;;;;;;;9.30;99.90;;;;;;4986677;28;19956;-67
2023/04/10 06:35:06;;;;;;;;;;;9.40;99.90;;;;;;5001259;28;19926;-68
2023/04/10 06:37:32;;;;;;;;;;;9.50;99.90;;;;;;4986946;28;20305;-67
2023/04/10 06:40:02;;;;;;;;;;;9.50;99.90;;;;;;4999682;28;19932;-68
2023/04/10 06:42:29;;;;;;;;;;;9.60;99.90;;;;;;5001630;28;20333;-66
2023/04/10 06:45:01;;;;;;;;;;;9.70;99.90;;;;;;5010250;28;20376;-67
2023/04/10 06:47:28;;;;;;;;;;;9.70;99.90;;;;;;4998268;28;19943;-67
2023/04/10 06:49:56;;;;;;;;;;;9.80;99.90;;;;;;5004091;28;19926;-66
2023/04/10 06:52:23;;;;;;;;;;;9.80;99.90;;;;;;5003392;28;20309;-67
2023/04/10 06:54:50;;;;;;;;;;;9.90;99.90;;;;;;4985923;28;20349;-66
2023/04/10 06:57:17;;;;;;;;;;;9.80;99.90;;;;;;4980062;28;19933;-66
2023/04/10 06:59:44;;;;;;;;;;;9.80;99.90;;;;;;4992471;28;19996;-65
2023/04/10 07:02:11;;;;;;;;;;;9.80;99.90;;;;;;4978264;28;19926;-68
2023/04/10 07:04:38;;;;;;;;;;;9.80;99.90;;;;;;4978193;28;20029;-66
2023/04/10 07:07:08;;;;;;;;;;;9.90;99.90;;;;;;5008731;28;19930;-65
2023/04/10 07:09:35;;;;;;;;;;;9.90;99.90;;;;;;5003082;28;19960;-67
2023/04/10 07:12:02;;;;;;;;;;;9.90;99.90;;;;;;4978372;28;19941;-67
2023/04/10 07:14:29;;;;;;;;;;;10.00;99.90;;;;;;4989012;28;19952;-67
2023/04/10 07:16:56;;;;;;;;;;;10.00;99.90;;;;;;4999493;28;20273;-68
2023/04/10 07:19:22;;;;;;;;;;;10.00;99.90;;;;;;4977066;28;19926;-66
2023/04/10 07:21:49;;;;;;;;;;;10.10;99.90;;;;;;4989701;28;20425;-66
2023/04/10 07:24:18;;;;;;;;;;;10.20;99.90;;;;;;4995100;28;19925;-66
2023/04/10 07:26:45;;;;;;;;;;;10.30;99.90;;;;;;4977963;28;19935;-67
2023/04/10 07:29:11;;;;;;;;;;;10.40;99.90;;;;;;4993665;28;19984;-67
2023/04/10 07:31:38;;;;;;;;;;;10.50;99.90;;;;;;4989843;28;20312;-67
2023/04/10 07:34:05;;;;;;;;;;;10.60;99.90;;;;;;4995626;28;20316;-67
2023/04/10 07:36:32;;;;;;;;;;;10.70;99.90;;;;;;4990793;28;19941;-67
2023/04/10 07:38:59;;;;;;;;;;;10.80;99.90;;;;;;4992140;28;20446;-67
2023/04/10 07:41:27;;;;;;;;;;;11.00;99.90;;;;;;4999701;28;19930;-67
2023/04/10 07:43:54;;;;;;;;;;;11.10;99.90;;;;;;5000472;28;19934;-67
2023/04/10 07:46:21;;;;;;;;;;;11.20;99.90;;;;;;5014835;28;19937;-67
2023/04/10 07:48:48;;;;;;;;;;;11.40;99.90;;;;;;4996961;28;19926;-68
2023/04/10 07:51:15;;;;;;;;;;;11.50;99.90;;;;;;5012026;28;19982;-70
2023/04/10 07:53:42;;;;;;;;;;;11.60;99.90;;;;;;4986858;28;20328;-66
2023/04/10 07:56:14;;;;;;;;;;;11.70;99.90;;;;;;5005146;28;19929;-67
2023/04/10 07:58:43;;;;;;;;;;;11.90;99.90;;;;;;4997965;28;20471;-70
2023/04/10 08:01:10;;;;;;;;;;;12.00;99.90;;;;;;4992744;28;20412;-67
2023/04/10 08:03:40;;;;;;;;;;;12.20;99.90;;;;;;5007043;28;19926;-68
2023/04/10 08:06:08;;;;;;;;;;;12.20;99.90;;;;;;4983576;28;20397;-68
2023/04/10 08:08:35;;;;;;;;;;;12.30;99.90;;;;;;4982221;28;19926;-66
2023/04/10 08:11:02;;;;;;;;;;;12.40;99.90;;;;;;4994605;28;19957;-68
2023/04/10 08:13:29;;;;;;;;;;;12.50;99.90;;;;;;4988084;28;19926;-66
2023/04/10 08:15:57;;;;;;;;;;;12.50;99.90;;;;;;4994879;28;19930;-67
2023/04/10 08:18:24;;;;;;;;;;;12.50;99.90;;;;;;5002070;28;19925;-68
2023/04/10 08:20:51;;;;;;;;;;;12.60;99.90;;;;;;5008951;28;19929;-68
2023/04/10 08:23:18;;;;;;;;;;;12.60;99.90;;;;;;4980279;28;19926;-66
2023/04/10 08:25:45;;;;;;;;;;;12.70;99.90;;;;;;4997910;28;19933;-68
2023/04/10 08:28:11;;;;;;;;;;;12.80;99.90;;;;;;4987123;28;19933;-67
2023/04/10 08:30:38;;;;;;;;;;;12.90;99.90;;;;;;4980751;28;19926;-68
2023/04/10 08:33:06;;;;;;;;;;;13.00;99.90;;;;;;4999366;28;19925;-69
2023/04/10 08:35:33;;;;;;;;;;;13.10;99.90;;;;;;5008739;28;19926;-69
2023/04/10 08:38:00;;;;;;;;;;;13.20;99.90;;;;;;4990402;28;19932;-66
2023/04/10 08:40:27;;;;;;;;;;;13.20;99.90;;;;;;4995018;28;19925;-66
2023/04/10 08:42:54;;;;;;;;;;;13.20;99.90;;;;;;4986361;28;19932;-68
2023/04/10 08:45:21;;;;;;;;;;;13.10;99.90;;;;;;4979296;28;19973;-68
2023/04/10 08:47:48;;;;;;;;;;;13.20;99.90;;;;;;4995460;28;20314;-68
2023/04/10 08:50:17;;;;;;;;;;;13.20;99.90;;;;;;4978808;28;19926;-68
2023/04/10 08:52:45;;;;;;;;;;;13.30;99.90;;;;;;4997988;28;19929;-69
2023/04/10 08:55:13;;;;;;;;;;;13.50;99.90;;;;;;5008276;28;19936;-68
2023/04/10 08:57:40;;;;;;;;;;;13.70;99.90;;;;;;4997471;28;19936;-68
2023/04/10 09:00:07;;;;;;;;;;;13.90;99.90;;;;;;4984278;28;19930;-67
2023/04/10 09:02:38;;;;;;;;;;;14.10;99.90;;;;;;4978197;28;20002;-68
2023/04/10 09:05:05;;;;;;;;;;;14.20;99.90;;;;;;4999763;28;19926;-68
2023/04/10 09:07:33;;;;;;;;;;;14.30;99.90;;;;;;4998285;28;19933;-68
2023/04/10 09:10:00;;;;;;;;;;;14.60;99.90;;;;;;4985504;28;19932;-68
2023/04/10 09:12:27;;;;;;;;;;;15.00;99.90;;;;;;4996740;28;19926;-69
2023/04/10 09:14:56;;;;;;;;;;;15.20;99.90;;;;;;4980407;28;20351;-68
2023/04/10 09:17:24;;;;;;;;;;;15.20;99.90;;;;;;4984152;28;20349;-68
2023/04/10 09:19:52;;;;;;;;;;;15.10;99.90;;;;;;4991107;28;19926;-68
2023/04/10 09:22:19;;;;;;;;;;;15.10;99.90;;;;;;4991570;28;19932;-68
2023/04/10 09:24:47;;;;;;;;;;;15.00;99.90;;;;;;4997041;28;20397;-66
2023/04/10 09:27:27;;;;;;;;;;;15.30;99.90;;;;;;4995192;28;19960;-69
2023/04/10 09:29:54;;;;;;;;;;;15.60;99.90;;;;;;4998216;28;19949;-67
2023/04/10 09:32:36;;;;;;;;;;;15.70;99.90;;;;;;4989771;28;19940;-65
2023/04/10 09:35:04;;;;;;;;;;;15.60;99.90;;;;;;4989597;28;19933;-68
2023/04/10 09:37:32;;;;;;;;;;;15.80;99.90;;;;;;5010012;28;19985;-66
2023/04/10 09:40:00;;;;;;;;;;;16.10;99.90;;;;;;5006619;28;19938;-67
2023/04/10 09:42:31;;;;;;;;;;;16.30;99.90;;;;;;5010767;28;20009;-68
2023/04/10 09:44:58;;;;;;;;;;;16.40;99.90;;;;;;4980255;28;19969;-68
2023/04/10 09:47:25;;;;;;;;;;;16.70;99.90;;;;;;4995131;28;19926;-67
2023/04/10 09:49:53;;;;;;;;;;;16.70;99.90;;;;;;4997698;28;19926;-68
2023/04/10 09:52:21;;;;;;;;;;;16.70;99.90;;;;;;4993428;28;19932;-66
2023/04/10 09:54:48;;;;;;;;;;;16.70;99.90;;;;;;4996530;28;19933;-68
2023/04/10 09:57:18;;;;;;;;;;;16.80;99.90;;;;;;5001272;28;19937;-67
2023/04/10 09:59:47;;;;;;;;;;;17.20;99.90;;;;;;4997007;28;19925;-67
2023/04/10 10:02:14;;;;;;;;;;;17.40;99.90;;;;;;4979294;28;19925;-67
2023/04/10 10:04:43;;;;;;;;;;;17.90;99.90;;;;;;4992544;28;19930;-68
2023/04/10 10:07:09;;;;;;;;;;;17.80;99.90;;;;;;4993302;28;19926;-68
2023/04/10 10:09:37;;;;;;;;;;;17.80;99.90;;;;;;4990993;28;19925;-68
2023/04/10 10:12:05;;;;;;;;;;;17.60;99.90;;;;;;4995851;28;19969;-68
2023/04/10 10:14:35;;;;;;;;;;;17.70;99.90;;;;;;4989118;28;20319;-70
2023/04/10 10:17:06;;;;;;;;;;;17.70;99.90;;;;;;5000228;28;19936;-68
2023/04/10 10:19:38;;;;;;;;;;;17.70;99.90;;;;;;4987618;28;19933;-67
2023/04/10 10:22:07;;;;;;;;;;;17.80;99.90;;;;;;4977692;28;19933;-66
2023/04/10 10:24:36;;;;;;;;;;;17.60;99.90;;;;;;5003850;28;20086;-68
2023/04/10 10:27:04;;;;;;;;;;;17.60;99.90;;;;;;5002919;28;19926;-68
2023/04/10 10:29:32;;;;;;;;;;;17.70;99.90;;;;;;5010598;28;19929;-67
2023/04/10 10:32:01;;;;;;;;;;;17.80;99.90;;;;;;4991603;28;20340;-69
2023/04/10 10:34:28;;;;;;;;;;;17.90;99.90;;;;;;5010544;28;19934;-69
2023/04/10 10:36:58;;;;;;;;;;;17.70;99.90;;;;;;5000356;28;20177;-67
2023/04/10 10:39:29;;;;;;;;;;;17.60;99.90;;;;;;5000200;28;19933;-68
2023/04/10 10:42:00;;;;;;;;;;;17.50;99.90;;;;;;4993845;28;19926;-68
2023/04/10 10:44:31;;;;;;;;;;;17.50;99.90;;;;;;4988605;28;19972;-69
2023/04/10 10:47:04;;;;;;;;;;;17.60;99.90;;;;;;4994931;28;19926;-69
2023/04/10 10:49:49;;;;;;;;;;;17.50;99.90;;;;;;4986458;28;20385;-68
2023/04/10 10:52:16;;;;;;;;;;;17.70;99.90;;;;;;4999228;28;19925;-68
2023/04/10 10:54:43;;;;;;;;;;;17.90;99.90;;;;;;4985105;28;19934;-67
2023/04/10 10:57:33;;;;;;;;;;;17.90;99.90;;;;;;4993955;28;19933;-68
2023/04/10 11:00:00;;;;;;;;;;;18.10;99.90;;;;;;5004577;28;19976;-68
2023/04/10 11:02:29;;;;;;;;;;;18.10;99.90;;;;;;4981818;28;19926;-68
2023/04/10 11:04:55;;;;;;;;;;;18.20;99.90;;;;;;4989649;28;19926;-67
2023/04/10 11:07:42;;;;;;;;;;;18.10;99.90;;;;;;4994141;28;19930;-68
2023/04/10 11:10:09;;;;;;;;;;;17.90;99.90;;;;;;4979875;28;19926;-68
2023/04/10 11:12:56;;;;;;;;;;;18.20;99.90;;;;;;5006121;28;19961;-67
2023/04/10 11:15:23;;;;;;;;;;;18.40;99.90;;;;;;5011303;28;19929;-68
2023/04/10 11:17:52;;;;;;;;;;;18.10;99.90;;;;;;4993896;28;19929;-69
2023/04/10 11:20:20;;;;;;;;;;;17.90;99.90;;;;;;5011256;28;20380;-68
2023/04/10 11:23:11;;;;;;;;;;;18.10;99.90;;;;;;5006120;28;19984;-68
2023/04/10 11:25:49;;;;;;;;;;;18.10;99.90;;;;;;4972469;28;19933;-68
2023/04/10 11:28:34;;;;;;;;;;;18.00;99.90;;;;;;4999715;28;20355;-69
2023/04/10 11:31:13;;;;;;;;;;;17.90;99.90;;;;;;5006848;28;19933;-69
2023/04/10 11:33:42;;;;;;;;;;;18.00;99.90;;;;;;4989999;28;20519;-68
2023/04/10 11:36:09;;;;;;;;;;;18.20;99.90;;;;;;4988125;28;19933;-68
2023/04/10 11:38:36;;;;;;;;;;;18.30;99.90;;;;;;4985259;28;19969;-69
2023/04/10 11:41:05;;;;;;;;;;;18.30;99.90;;;;;;4995634;28;20393;-68
2023/04/10 11:43:33;;;;;;;;;;;18.60;99.90;;;;;;4993571;28;19960;-68
2023/04/10 11:46:01;;;;;;;;;;;19.00;99.90;;;;;;5005116;28;19936;-68
2023/04/10 11:48:28;;;;;;;;;;;19.70;99.90;;;;;;4996399;28;20397;-69
2023/04/10 11:50:56;;;;;;;;;;;20.20;99.90;;;;;;4982179;28;19972;-69
2023/04/10 11:53:23;;;;;;;;;;;21.30;99.90;;;;;;4984048;28;19945;-69
2023/04/10 11:55:50;;;;;;;;;;;21.80;99.90;;;;;;4988699;28;19933;-68
2023/04/10 11:58:24;;;;;;;;;;;21.60;99.90;;;;;;5010657;28;19933;-68
2023/04/10 12:01:01;;;;;;;;;;;21.10;99.90;;;;;;4984777;28;19926;-69
2023/04/10 12:03:35;;;;;;;;;;;21.40;99.90;;;;;;5011263;28;19926;-69
2023/04/10 12:06:03;;;;;;;;;;;21.60;99.90;;;;;;4995362;28;20021;-67
2023/04/10 12:08:30;;;;;;;;;;;22.20;99.90;;;;;;5001238;28;19926;-68
2023/04/10 12:10:59;;;;;;;;;;;22.40;99.90;;;;;;4998990;28;20357;-69
2023/04/10 12:13:26;;;;;;;;;;;22.60;99.90;;;;;;4988469;28;20328;-68
2023/04/10 12:15:53;;;;;;;;;;;22.00;99.90;;;;;;5009867;28;19930;-66
2023/04/10 12:18:20;;;;;;;;;;;21.90;99.90;;;;;;4983437;28;19933;-68
2023/04/10 12:20:47;;;;;;;;;;;22.10;99.90;;;;;;5001945;28;19938;-68
2023/04/10 12:23:14;;;;;;;;;;;;;;;;;;5007177;28;20394;-68
2023/04/10 12:25:41;;;;;;;;;;;;;;;;;;4981122;28;19977;-67
2023/04/10 12:28:09;;;;;;;;;;;24.80;99.90;;;;;;5004749;28;19930;-70
2023/04/10 12:30:36;;;;;;;;;;;25.60;99.90;;;;;;4988830;28;20372;-68
2023/04/10 12:33:06;;;;;;;;;;;26.40;99.90;;;;;;4977447;28;19942;-68
2023/04/10 12:35:39;;;;;;;;;;;26.20;99.90;;;;;;4979965;28;19930;-69
2023/04/10 12:38:06;;;;;;;;;;;25.60;99.90;;;;;;4994476;28;19926;-67
2023/04/10 12:40:32;;;;;;;;;;;24.20;99.90;;;;;;4997955;28;19980;-69
2023/04/10 12:42:59;;;;;;;;;;;23.20;99.90;;;;;;5003515;28;19926;-69
2023/04/10 12:48:24;;;;;;;;;;;20.80;99.90;;;;;;5098872;27;19913;-67
2023/04/10 12:50:51;;;;;;;;;;;20.50;99.90;;;;;;5097931;28;19977;-68
2023/04/10 12:53:17;;;;;;;;;;;20.20;99.90;;;;;;5092507;28;19924;-70
2023/04/10 12:55:57;;;;;;;;;;;20.10;99.90;;;;;;5097452;28;19924;-69
2023/04/10 12:58:26;;;;;;;;;;;20.20;99.90;;;;;;5089952;28;20391;-69
2023/04/10 13:00:54;;;;;;;;;;;20.40;99.90;;;;;;5095513;28;19931;-71
2023/04/10 13:03:21;;;;;;;;;;;21.10;99.90;;;;;;5091290;28;19968;-69
2023/04/10 13:05:49;;;;;;;;;;;21.60;99.90;;;;;;5099340;28;20407;-71
2023/04/10 13:08:16;;;;;;;;;;;21.40;99.90;;;;;;5088808;28;19954;-69
2023/04/10 13:10:42;;;;;;;;;;;21.80;99.90;;;;;;5096540;28;19928;-70
2023/04/10 13:13:10;;;;;;;;;;;22.20;99.90;;;;;;5096063;28;19924;-68
2023/04/10 13:15:37;;;;;;;;;;;22.20;99.90;;;;;;5093078;28;19924;-69
2023/04/10 13:18:05;;;;;;;;;;;22.30;99.90;;;;;;5094776;28;19931;-70
2023/04/10 13:20:32;;;;;;;;;;;22.80;99.90;;;;;;5094861;28;19952;-70
2023/04/10 13:23:02;;;;;;;;;;;22.90;99.90;;;;;;5094823;28;20375;-70
2023/04/10 13:25:31;;;;;;;;;;;23.90;99.90;;;;;;5091783;28;19924;-69
2023/04/10 13:27:58;;;;;;;;;;;24.10;99.90;;;;;;5096361;28;19931;-70
2023/04/10 13:30:25;;;;;;;;;;;;;;;;;;5100194;28;19965;-67
2023/04/10 13:32:52;;;;;;;;;;;25.80;99.90;;;;;;5094543;28;19947;-69
2023/04/10 13:35:18;;;;;;;;;;;24.80;99.90;;;;;;5087665;28;19924;-69
2023/04/10 13:37:45;;;;;;;;;;;24.20;99.90;;;;;;5095188;28;19936;-69
2023/04/10 13:40:14;;;;;;;;;;;23.50;99.90;;;;;;5095449;28;19959;-70
2023/04/10 13:42:40;;;;;;;;;;;23.70;99.90;;;;;;5099740;28;20349;-69
2023/04/10 13:45:07;;;;;;;;;;;23.30;99.90;;;;;;5097739;28;19934;-69
2023/04/10 13:47:34;;;;;;;;;;;22.60;99.90;;;;;;5109783;28;19924;-70
2023/04/10 13:50:01;;;;;;;;;;;21.80;99.90;;;;;;5117423;28;19930;-69
2023/04/10 13:52:28;;;;;;;;;;;21.40;99.90;;;;;;5112046;27;19927;-70
2023/04/10 13:54:54;;;;;;;;;;;20.90;99.90;;;;;;5109080;28;19930;-70
2023/04/10 13:57:23;;;;;;;;;;;20.50;99.90;;;;;;5119495;27;19924;-70
2023/04/10 13:59:49;;;;;;;;;;;20.30;99.90;;;;;;5104452;28;19932;-68
2023/04/10 14:02:16;;;;;;;;;;;20.30;99.90;;;;;;5101464;28;19947;-69
2023/04/10 14:04:44;;;;;;;;;;;20.00;99.90;;;;;;5108107;28;19928;-70
2023/04/10 14:07:11;;;;;;;;;;;19.80;99.90;;;;;;5103146;28;19923;-69
2023/04/10 14:09:38;;;;;;;;;;;19.60;99.90;;;;;;5100736;28;20348;-69
2023/04/10 14:12:05;;;;;;;;;;;19.40;99.90;;;;;;5107964;28;19924;-69
2023/04/10 14:14:33;;;;;;;;;;;19.20;99.90;;;;;;5095731;28;19975;-70
2023/04/10 14:17:00;;;;;;;;;;;19.10;99.90;;;;;;5099296;28;19923;-70
2023/04/10 14:19:27;;;;;;;;;;;19.30;99.90;;;;;;5104191;28;19946;-71
2023/04/10 14:21:54;;;;;;;;;;;19.50;99.90;;;;;;5101394;28;19936;-69
2023/04/10 14:24:21;;;;;;;;;;;19.30;99.90;;;;;;5103253;28;20382;-68
2023/04/10 14:26:48;;;;;;;;;;;19.00;99.90;;;;;;5101482;28;19924;-69
2023/04/10 14:29:14;;;;;;;;;;;18.80;99.90;;;;;;5102732;28;19924;-68
2023/04/10 14:31:43;;;;;;;;;;;18.90;99.90;;;;;;5099728;28;19924;-69
2023/04/10 14:34:09;;;;;;;;;;;18.80;99.90;;;;;;5097467;28;19946;-69
2023/04/10 14:36:36;;;;;;;;;;;18.60;99.90;;;;;;5104073;28;19924;-69
2023/04/10 14:39:03;;;;;;;;;;;18.70;99.90;;;;;;5101968;28;19928;-68
2023/04/10 14:41:30;;;;;;;;;;;19.00;99.90;;;;;;5100832;28;19928;-70
2023/04/10 14:43:57;;;;;;;;;;;19.00;99.90;;;;;;5098526;28;19931;-69
2023/04/10 14:46:24;;;;;;;;;;;19.10;99.90;;;;;;5104064;28;20360;-69